createdAt,value
2019-05-13T00:00:34.166Z,5.45
2019-05-13T00:02:43.641Z,4.55
2019-05-13T00:04:49.951Z,2.15
2019-05-13T00:06:57.782Z,4.65
2019-05-13T00:09:07.550Z,3.87
2019-05-13T00:11:14.584Z,3.55
2019-05-13T00:13:23.653Z,2.75
2019-05-13T00:15:33.957Z,3.27
2019-05-13T00:17:40.921Z,3.20
2019-05-13T00:19:48.060Z,5.35
2019-05-13T00:22:03.549Z,2.35
2019-05-13T00:24:15.754Z,4.05
2019-05-13T00:26:24.430Z,4.90
2019-05-13T00:28:33.976Z,4.83
2019-05-13T00:30:40.403Z,6.75
2019-05-13T00:32:47.462Z,3.33
2019-05-13T00:34:54.497Z,6.15
2019-05-13T00:37:08.856Z,4.28
2019-05-13T00:39:11.421Z,5.65
2019-05-13T00:41:18.439Z,5.33
2019-05-13T00:43:25.465Z,5.33
2019-05-13T00:45:34.028Z,4.83
2019-05-13T00:47:47.403Z,5.72
2019-05-13T00:50:04.574Z,5.75
2019-05-13T00:52:14.922Z,5.55
2019-05-13T00:54:23.888Z,5.87
2019-05-13T00:56:31.083Z,4.50
2019-05-13T00:58:38.150Z,4.70
2019-05-13T01:00:45.664Z,5.95
2019-05-13T01:02:53.347Z,5.55
2019-05-13T01:05:00.539Z,5.33
2019-05-13T01:07:21.107Z,5.47
2019-05-13T01:09:16.308Z,3.25
2019-05-13T01:11:23.743Z,6.60
2019-05-13T01:13:34.348Z,6.50
2019-05-13T01:15:47.470Z,9.00
2019-05-13T01:18:00.308Z,5.80
2019-05-13T01:20:14.431Z,5.87
2019-05-13T01:22:24.008Z,4.90
2019-05-13T01:24:33.378Z,6.53
2019-05-13T01:26:39.989Z,6.05
2019-05-13T01:28:47.576Z,3.47
2019-05-13T01:30:54.632Z,6.20
2019-05-13T01:33:04.074Z,6.30
2019-05-13T01:35:10.639Z,6.22
2019-05-13T01:37:17.701Z,4.45
2019-05-13T01:39:24.932Z,7.65
2019-05-13T01:41:33.360Z,8.75
2019-05-13T01:43:46.700Z,8.18
2019-05-13T01:46:04.548Z,6.67
2019-05-13T01:48:14.733Z,7.45
2019-05-13T01:50:27.795Z,5.12
2019-05-13T01:52:36.846Z,5.70
2019-05-13T01:54:44.349Z,6.30
2019-05-13T01:56:53.523Z,5.50
2019-05-13T01:59:00.309Z,8.13
2019-05-13T02:01:07.339Z,7.97
2019-05-13T02:03:14.787Z,7.87
2019-05-13T02:05:24.093Z,6.10
2019-05-13T02:07:30.705Z,6.75
2019-05-13T02:09:37.829Z,4.70
2019-05-13T02:11:47.778Z,3.20
2019-05-13T02:13:54.816Z,3.45
2019-05-13T02:16:03.935Z,7.45
2019-05-13T02:18:10.685Z,7.85
2019-05-13T02:20:18.471Z,5.78
2019-05-13T02:22:25.528Z,4.53
2019-05-13T02:24:34.110Z,5.95
2019-05-13T02:26:43.718Z,6.67
2019-05-13T02:28:50.613Z,7.85
2019-05-13T02:30:57.743Z,6.05
2019-05-13T02:33:07.712Z,3.87
2019-05-13T02:35:16.583Z,5.47
2019-05-13T02:37:23.629Z,4.00
2019-05-13T02:39:32.901Z,6.08
2019-05-13T02:41:42.505Z,6.80
2019-05-13T02:43:52.397Z,6.08
2019-05-13T02:45:58.164Z,7.15
2019-05-13T02:48:05.532Z,2.50
2019-05-13T02:50:13.418Z,5.90
2019-05-13T02:52:22.424Z,5.58
2019-05-13T02:54:38.240Z,4.80
2019-05-13T02:56:52.613Z,2.10
2019-05-13T02:59:05.955Z,6.05
2019-05-13T03:01:22.360Z,6.83
2019-05-13T03:03:32.680Z,3.92
2019-05-13T03:05:42.783Z,3.05
2019-05-13T03:07:48.854Z,2.27
2019-05-13T03:09:55.968Z,3.52
2019-05-13T03:12:04.326Z,3.67
2019-05-13T03:14:12.835Z,2.62
2019-05-13T03:16:23.102Z,5.37
2019-05-13T03:18:33.516Z,2.83
2019-05-13T03:20:44.891Z,3.67
2019-05-13T03:23:03.015Z,8.08
2019-05-13T03:25:15.781Z,5.37
2019-05-13T03:27:33.300Z,4.60
2019-05-13T03:29:43.182Z,6.10
2019-05-13T03:31:54.868Z,3.22
2019-05-13T03:33:58.145Z,5.05
2019-05-13T03:36:07.841Z,4.30
2019-05-13T03:38:14.178Z,4.00
2019-05-13T03:40:23.371Z,3.20
2019-05-13T03:42:34.149Z,3.92
2019-05-13T03:44:44.861Z,4.50
2019-05-13T03:46:57.316Z,5.15
2019-05-13T03:49:14.112Z,3.70
2019-05-13T03:51:33.390Z,2.87
2019-05-13T03:53:53.587Z,3.08
2019-05-13T03:56:03.601Z,3.83
2019-05-13T03:58:13.269Z,4.45
2019-05-13T04:00:23.595Z,4.05
2019-05-13T04:02:32.571Z,4.67
2019-05-13T04:04:42.115Z,2.72
2019-05-13T04:06:47.931Z,2.60
2019-05-13T04:09:15.714Z,3.25
2019-05-13T04:11:06.059Z,1.65
2019-05-13T04:13:13.479Z,4.90
2019-05-13T04:15:23.481Z,2.95
2019-05-13T04:17:32.596Z,4.17
2019-05-13T04:19:42.401Z,4.47
2019-05-13T04:21:52.632Z,1.80
2019-05-13T04:23:58.544Z,6.30
2019-05-13T04:26:07.492Z,4.20
2019-05-13T04:28:14.529Z,3.67
2019-05-13T04:30:23.050Z,2.22
2019-05-13T04:32:33.513Z,4.65
2019-05-13T04:34:41.546Z,2.65
2019-05-13T04:36:47.756Z,3.47
2019-05-13T04:38:58.399Z,4.33
2019-05-13T04:41:12.143Z,3.65
2019-05-13T04:43:33.713Z,1.25
2019-05-13T04:45:43.432Z,4.10
2019-05-13T04:47:52.850Z,4.92
2019-05-13T04:50:02.942Z,3.17
2019-05-13T04:52:09.226Z,1.87
2019-05-13T04:54:16.249Z,3.45
2019-05-13T04:56:23.587Z,3.87
2019-05-13T04:58:32.233Z,3.33
2019-05-13T05:01:02.323Z,3.20
2019-05-13T05:03:33.512Z,4.62
2019-05-13T05:06:33.193Z,2.47
2019-05-13T05:09:12.843Z,3.27
2019-05-13T05:12:02.907Z,3.72
2019-05-13T05:14:52.195Z,2.55
2019-05-13T05:17:22.501Z,1.55
2019-05-13T05:19:55.799Z,4.45
2019-05-13T05:22:53.871Z,3.17
2019-05-13T05:25:29.304Z,1.95
2019-05-13T05:28:08.452Z,2.55
2019-05-13T05:31:03.426Z,3.83
2019-05-13T05:33:41.169Z,3.47
2019-05-13T05:36:21.821Z,4.25
2019-05-13T05:39:12.317Z,4.62
2019-05-13T05:41:22.901Z,3.98
2019-05-13T05:43:31.754Z,4.60
2019-05-13T05:45:41.740Z,3.30
2019-05-13T05:47:52.357Z,4.60
2019-05-13T05:50:02.831Z,3.90
2019-05-13T05:52:12.293Z,6.03
2019-05-13T05:54:22.920Z,4.42
2019-05-13T05:56:33.022Z,3.33
2019-05-13T05:58:42.523Z,5.30
2019-05-13T06:00:52.108Z,5.72
2019-05-13T06:03:02.538Z,2.83
2019-05-13T06:05:12.638Z,5.17
2019-05-13T06:07:22.043Z,5.90
2019-05-13T06:09:31.507Z,4.25
2019-05-13T06:11:38.198Z,4.78
2019-05-13T06:13:45.229Z,4.17
2019-05-13T06:15:52.341Z,11.60
2019-05-13T06:18:02.269Z,7.75
2019-05-13T06:20:13.217Z,5.45
2019-05-13T06:22:18.907Z,5.35
2019-05-13T06:24:32.548Z,5.15
2019-05-13T06:26:42.045Z,5.20
2019-05-13T06:28:49.355Z,5.87
2019-05-13T06:30:58.520Z,5.53
2019-05-13T06:33:05.755Z,8.15
2019-05-13T06:35:12.886Z,6.00
2019-05-13T06:37:21.681Z,6.08
2019-05-13T06:39:31.568Z,9.58
2019-05-13T06:41:38.166Z,5.67
2019-05-13T06:43:45.263Z,4.67
2019-05-13T06:46:01.911Z,6.60
2019-05-13T06:48:11.717Z,6.60
2019-05-13T06:50:19.158Z,5.12
2019-05-13T06:52:26.190Z,8.98
2019-05-13T06:54:33.463Z,7.80
2019-05-13T06:56:42.875Z,8.85
2019-05-13T06:58:51.724Z,12.73
2019-05-13T07:00:58.869Z,6.83
2019-05-13T07:03:09.086Z,9.98
2019-05-13T07:05:22.646Z,6.72
2019-05-13T07:07:31.937Z,6.97
2019-05-13T07:09:39.293Z,7.08
2019-05-13T07:11:46.435Z,6.12
2019-05-13T07:13:53.625Z,7.60
2019-05-13T07:16:01.361Z,11.53
2019-05-13T07:18:08.565Z,8.30
2019-05-13T07:20:16.440Z,6.92
2019-05-13T07:22:23.640Z,5.12
2019-05-13T07:24:36.383Z,4.85
2019-05-13T07:26:43.442Z,5.55
2019-05-13T07:28:52.419Z,8.35
2019-05-13T07:30:59.324Z,9.55
2019-05-13T07:33:08.383Z,8.75
2019-05-13T07:35:17.748Z,5.83
2019-05-13T07:37:27.231Z,10.23
2019-05-13T07:39:34.274Z,6.67
2019-05-13T07:41:43.413Z,5.92
2019-05-13T07:43:51.700Z,4.58
2019-05-13T07:45:59.102Z,3.50
2019-05-13T07:48:19.391Z,6.92
2019-05-13T07:50:15.958Z,4.72
2019-05-13T07:52:23.330Z,8.73
2019-05-13T07:54:33.440Z,4.08
2019-05-13T07:56:42.585Z,5.80
2019-05-13T07:58:52.178Z,5.08
2019-05-13T08:00:58.412Z,4.78
2019-05-13T08:03:05.451Z,2.75
2019-05-13T08:05:13.391Z,3.00
2019-05-13T08:07:22.652Z,7.40
2019-05-13T08:09:31.140Z,2.80
2019-05-13T08:11:56.255Z,7.42
2019-05-13T08:13:46.694Z,4.67
2019-05-13T08:15:54.739Z,4.62
2019-05-13T08:18:02.230Z,3.10
2019-05-13T08:20:12.490Z,7.12
2019-05-13T08:22:21.809Z,5.53
2019-05-13T08:24:31.484Z,2.87
2019-05-13T08:26:45.183Z,5.12
2019-05-13T08:29:00.050Z,6.45
2019-05-13T08:30:56.127Z,5.65
2019-05-13T08:33:03.206Z,8.58
2019-05-13T08:35:12.493Z,4.17
2019-05-13T08:37:21.715Z,8.98
2019-05-13T08:39:35.678Z,7.62
2019-05-13T08:41:37.592Z,5.78
2019-05-13T08:43:52.706Z,9.78
2019-05-13T08:46:02.003Z,9.25
2019-05-13T08:48:08.644Z,6.28
2019-05-13T08:50:15.930Z,18.15
2019-05-13T08:52:23.081Z,7.05
2019-05-13T08:54:32.420Z,7.70
2019-05-13T08:56:41.447Z,5.78
2019-05-13T08:58:47.733Z,10.72
2019-05-13T09:00:58.984Z,8.55
2019-05-13T09:03:06.364Z,7.92
2019-05-13T09:05:14.798Z,10.68
2019-05-13T09:07:24.286Z,9.43
2019-05-13T09:09:31.501Z,7.78
2019-05-13T09:11:38.807Z,10.30
2019-05-13T09:13:45.911Z,11.63
2019-05-13T09:15:52.954Z,8.18
2019-05-13T09:18:02.171Z,7.05
2019-05-13T09:20:11.488Z,7.87
2019-05-13T09:22:18.180Z,12.47
2019-05-13T09:24:33.325Z,13.35
2019-05-13T09:26:34.855Z,10.85
2019-05-13T09:28:41.907Z,8.55
2019-05-13T09:30:52.746Z,10.20
2019-05-13T09:33:01.993Z,13.72
2019-05-13T09:35:11.810Z,12.73
2019-05-13T09:37:18.479Z,12.03
2019-05-13T09:39:25.983Z,6.28
2019-05-13T09:41:38.574Z,12.20
2019-05-13T09:43:42.086Z,7.83
2019-05-13T09:45:49.263Z,7.22
2019-05-13T09:47:58.184Z,9.00
2019-05-13T09:50:06.665Z,10.00
2019-05-13T09:52:13.704Z,8.35
2019-05-13T09:54:22.292Z,8.15
2019-05-13T09:56:32.054Z,9.45
2019-05-13T09:58:41.886Z,9.83
2019-05-13T10:00:48.275Z,9.18
2019-05-13T10:02:58.427Z,6.25
2019-05-13T10:05:07.392Z,9.68
2019-05-13T10:07:14.610Z,11.93
2019-05-13T10:09:21.849Z,7.58
2019-05-13T10:11:29.005Z,16.27
2019-05-13T10:13:36.117Z,11.73
2019-05-13T10:15:48.746Z,14.68
2019-05-13T10:17:53.959Z,8.83
2019-05-13T10:20:01.079Z,14.83
2019-05-13T10:22:08.485Z,12.10
2019-05-13T10:24:15.590Z,12.25
2019-05-13T10:26:22.959Z,9.78
2019-05-13T10:28:32.104Z,7.87
2019-05-13T10:30:39.402Z,10.58
2019-05-13T10:32:46.484Z,10.30
2019-05-13T10:34:55.568Z,9.45
2019-05-13T10:37:03.145Z,10.25
2019-05-13T10:39:11.893Z,12.20
2019-05-13T10:41:19.275Z,13.68
2019-05-13T10:43:31.754Z,10.38
2019-05-13T10:45:37.549Z,9.25
2019-05-13T10:47:44.684Z,8.58
2019-05-13T10:49:52.825Z,10.10
2019-05-13T10:52:02.832Z,7.83
2019-05-13T10:54:09.021Z,8.25
2019-05-13T10:56:16.187Z,12.78
2019-05-13T10:58:23.668Z,4.72
2019-05-13T11:00:47.195Z,4.17
2019-05-13T11:03:00.540Z,4.78
2019-05-13T11:05:08.588Z,10.85
2019-05-13T11:07:15.710Z,9.83
2019-05-13T11:09:23.191Z,4.00
2019-05-13T11:11:33.298Z,8.65
2019-05-13T11:13:52.156Z,6.45
2019-05-13T11:15:50.012Z,6.37
2019-05-13T11:17:58.117Z,8.70
2019-05-13T11:20:07.931Z,8.58
2019-05-13T11:22:17.643Z,10.23
2019-05-13T11:24:24.747Z,5.75
2019-05-13T11:26:36.147Z,6.12
2019-05-13T11:28:42.938Z,8.38
2019-05-13T11:30:51.907Z,12.70
2019-05-13T11:32:58.272Z,6.28
2019-05-13T11:35:07.316Z,4.58
2019-05-13T11:37:15.000Z,9.10
2019-05-13T11:39:22.523Z,4.40
2019-05-13T11:41:29.557Z,4.50
2019-05-13T11:43:36.668Z,7.05
2019-05-13T11:45:43.757Z,5.45
2019-05-13T11:47:52.208Z,4.37
2019-05-13T11:50:02.397Z,5.08
2019-05-13T11:52:11.105Z,4.70
2019-05-13T11:54:17.996Z,5.97
2019-05-13T11:56:25.068Z,5.58
2019-05-13T11:58:32.615Z,4.10
2019-05-13T12:00:53.252Z,6.05
2019-05-13T12:03:03.586Z,7.70
2019-05-13T12:05:10.186Z,6.42
2019-05-13T12:07:17.341Z,10.10
2019-05-13T12:09:26.212Z,4.25
2019-05-13T12:11:33.552Z,5.05
2019-05-13T12:13:42.629Z,6.90
2019-05-13T12:15:51.127Z,8.08
2019-05-13T12:17:58.581Z,5.80
2019-05-13T12:20:07.318Z,4.30
2019-05-13T12:22:14.435Z,8.00
2019-05-13T12:24:22.771Z,9.03
2019-05-13T12:26:33.319Z,4.08
2019-05-13T12:28:38.774Z,8.40
2019-05-13T12:30:45.956Z,7.80
2019-05-13T12:32:53.025Z,6.35
2019-05-13T12:35:03.406Z,4.17
2019-05-13T12:37:12.033Z,3.92
2019-05-13T12:39:18.166Z,5.62
2019-05-13T12:41:25.224Z,3.67
2019-05-13T12:43:32.458Z,4.85
2019-05-13T12:45:42.782Z,8.83
2019-05-13T12:47:48.352Z,3.42
2019-05-13T12:49:55.735Z,4.37
2019-05-13T12:52:04.560Z,6.83
2019-05-13T12:54:13.578Z,4.87
2019-05-13T12:56:23.375Z,4.10
2019-05-13T12:58:33.554Z,5.90
2019-05-13T13:00:38.359Z,3.45
2019-05-13T13:02:51.648Z,6.47
2019-05-13T13:05:10.870Z,5.90
2019-05-13T13:07:05.181Z,2.90
2019-05-13T13:09:14.134Z,3.75
2019-05-13T13:11:22.838Z,10.60
2019-05-13T13:13:56.215Z,6.25
2019-05-13T13:15:48.966Z,5.67
2019-05-13T13:17:54.076Z,4.05
2019-05-13T13:20:08.791Z,2.90
2019-05-13T13:22:13.345Z,5.33
2019-05-13T13:24:23.258Z,8.90
2019-05-13T13:26:27.739Z,5.25
2019-05-13T13:28:34.817Z,4.58
2019-05-13T13:30:44.252Z,4.30
2019-05-13T13:35:03.398Z,7.97
2019-05-13T13:37:09.963Z,8.05
2019-05-13T13:39:17.019Z,2.27
2019-05-13T13:41:24.159Z,6.70
2019-05-13T13:43:36.974Z,7.92
2019-05-13T13:47:59.251Z,4.10
2019-05-13T13:49:59.502Z,9.53
2019-05-13T13:52:06.761Z,8.13
2019-05-13T13:54:14.182Z,6.78
2019-05-13T13:56:25.260Z,4.70
2019-05-13T13:58:32.723Z,7.10
2019-05-13T14:00:55.099Z,6.12
2019-05-13T14:02:53.747Z,5.65
2019-05-13T14:04:57.933Z,6.10
2019-05-13T14:07:09.453Z,8.33
2019-05-13T14:07:22.636Z,8.73
2019-05-13T14:09:15.740Z,5.28
2019-05-13T14:11:23.392Z,5.70
2019-05-13T14:13:32.400Z,4.75
2019-05-13T14:15:41.773Z,5.42
2019-05-13T14:17:48.249Z,6.70
2019-05-13T14:19:55.401Z,5.05
2019-05-13T14:22:02.544Z,7.33
2019-05-13T14:24:11.888Z,7.97
2019-05-13T14:26:18.454Z,7.78
2019-05-13T14:28:25.576Z,7.40
2019-05-13T14:30:33.035Z,7.65
2019-05-13T14:32:42.424Z,6.25
2019-05-13T14:34:49.439Z,7.25
2019-05-13T14:37:01.158Z,9.00
2019-05-13T14:39:12.066Z,5.22
2019-05-13T14:41:21.772Z,4.25
2019-05-13T14:43:28.305Z,5.72
2019-05-13T14:45:35.462Z,3.58
2019-05-13T14:47:42.575Z,4.58
2019-05-13T14:49:51.648Z,8.08
2019-05-13T14:51:58.561Z,7.92
2019-05-13T14:54:05.862Z,10.72
2019-05-13T14:56:14.483Z,12.37
2019-05-13T14:58:22.028Z,5.10
2019-05-13T15:00:32.530Z,4.78
2019-05-13T15:02:38.332Z,7.17
2019-05-13T15:04:45.436Z,6.50
2019-05-13T15:06:52.748Z,5.95
2019-05-13T15:09:01.729Z,6.92
2019-05-13T15:11:12.354Z,5.25
2019-05-13T15:13:18.705Z,7.65
2019-05-13T15:15:25.763Z,7.55
2019-05-13T15:17:34.809Z,5.03
2019-05-13T15:19:42.063Z,6.25
2019-05-13T15:21:51.904Z,5.30
2019-05-13T15:23:58.208Z,6.45
2019-05-13T15:26:05.377Z,6.12
2019-05-13T15:28:12.507Z,9.45
2019-05-13T15:30:21.850Z,5.15
2019-05-13T15:32:28.727Z,6.47
2019-05-13T15:34:36.069Z,5.35
2019-05-13T15:36:44.473Z,5.12
2019-05-13T15:38:52.146Z,9.35
2019-05-13T15:41:01.190Z,5.22
2019-05-13T15:43:08.158Z,6.05
2019-05-13T15:45:15.918Z,7.87
2019-05-13T15:47:26.606Z,5.62
2019-05-13T15:49:34.886Z,5.28
2019-05-13T15:51:42.318Z,8.10
2019-05-13T15:53:51.699Z,7.45
2019-05-13T15:56:02.518Z,5.33
2019-05-13T15:58:11.748Z,5.60
2019-05-13T16:00:21.924Z,5.25
2019-05-13T16:02:28.664Z,3.72
2019-05-13T16:04:49.076Z,9.23
2019-05-13T16:06:45.674Z,6.80
2019-05-13T16:08:52.778Z,3.10
2019-05-13T16:11:02.245Z,6.83
2019-05-13T16:13:08.700Z,5.50
2019-05-13T16:15:17.932Z,7.25
2019-05-13T16:17:37.913Z,9.45
2019-05-13T16:19:33.852Z,8.53
2019-05-13T16:21:41.558Z,8.68
2019-05-13T16:23:48.886Z,5.62
2019-05-13T16:25:56.066Z,8.38
2019-05-13T16:28:06.239Z,9.25
2019-05-13T16:30:13.594Z,6.25
2019-05-13T16:32:22.730Z,5.70
2019-05-13T16:34:31.734Z,4.33
2019-05-13T16:36:38.645Z,5.85
2019-05-13T16:38:46.823Z,9.78
2019-05-13T16:40:54.178Z,6.85
2019-05-13T16:43:01.425Z,6.28
2019-05-13T16:45:08.809Z,3.75
2019-05-13T16:47:16.015Z,6.78
2019-05-13T16:49:23.118Z,5.58
2019-05-13T16:51:31.757Z,5.55
2019-05-13T16:53:38.964Z,7.72
2019-05-13T16:55:46.084Z,8.55
2019-05-13T16:57:53.128Z,10.53
2019-05-13T17:00:02.256Z,10.10
2019-05-13T17:02:09.128Z,5.83
2019-05-13T17:04:16.166Z,8.88
2019-05-13T17:06:23.308Z,7.15
2019-05-13T17:08:31.866Z,7.67
2019-05-13T17:10:39.372Z,10.75
2019-05-13T17:12:46.504Z,8.73
2019-05-13T17:14:53.567Z,13.90
2019-05-13T17:17:01.196Z,16.32
2019-05-13T17:19:08.554Z,14.63
2019-05-13T17:21:15.789Z,11.60
2019-05-13T17:23:22.956Z,14.47
2019-05-13T17:25:30.155Z,20.70
2019-05-13T17:27:37.370Z,10.70
2019-05-13T17:29:44.419Z,8.78
2019-05-13T17:31:51.640Z,9.78
2019-05-13T17:34:01.758Z,9.95
2019-05-13T17:36:08.894Z,15.00
2019-05-13T17:38:15.997Z,17.27
2019-05-13T17:40:23.049Z,11.08
2019-05-13T17:42:31.950Z,11.88
2019-05-13T17:44:38.946Z,9.73
2019-05-13T17:46:45.996Z,8.50
2019-05-13T17:48:53.085Z,12.10
2019-05-13T17:51:01.421Z,12.37
2019-05-13T17:53:11.174Z,12.90
2019-05-13T17:55:17.603Z,9.43
2019-05-13T17:57:24.822Z,8.78
2019-05-13T17:59:32.061Z,12.75
2019-05-13T18:01:41.240Z,10.38
2019-05-13T18:03:49.005Z,7.85
2019-05-13T18:05:56.054Z,13.55
2019-05-13T18:08:03.111Z,11.53
2019-05-13T18:10:12.046Z,10.03
2019-05-13T18:12:22.137Z,13.30
2019-05-13T18:14:30.218Z,14.20
2019-05-13T18:16:37.369Z,10.00
2019-05-13T18:18:47.438Z,13.43
2019-05-13T18:20:54.140Z,14.83
2019-05-13T18:23:01.726Z,8.30
2019-05-13T18:25:11.736Z,12.35
2019-05-13T18:27:18.406Z,12.30
2019-05-13T18:29:25.477Z,6.90
2019-05-13T18:31:33.203Z,13.88
2019-05-13T18:33:43.129Z,10.78
2019-05-13T18:35:52.397Z,6.55
2019-05-13T18:38:01.150Z,9.33
2019-05-13T18:40:11.422Z,10.65
2019-05-13T18:42:17.844Z,6.50
2019-05-13T18:44:26.595Z,3.92
2019-05-13T18:46:33.852Z,5.15
2019-05-13T18:48:57.674Z,6.97
2019-05-13T18:50:52.107Z,4.70
2019-05-13T18:52:58.566Z,5.28
2019-05-13T18:55:07.901Z,6.28
2019-05-13T18:57:15.025Z,9.40
2019-05-13T18:59:22.056Z,7.40
2019-05-13T19:01:32.068Z,6.28
2019-05-13T19:03:41.321Z,8.53
2019-05-13T19:05:47.955Z,6.47
2019-05-13T19:07:56.238Z,6.28
2019-05-13T19:10:03.468Z,8.65
2019-05-13T19:12:11.626Z,5.25
2019-05-13T19:14:21.123Z,10.23
2019-05-13T19:16:27.773Z,5.70
2019-05-13T19:18:34.956Z,6.28
2019-05-13T19:20:42.041Z,7.95
2019-05-13T19:22:49.087Z,10.28
2019-05-13T19:24:58.026Z,9.18
2019-05-13T19:27:07.941Z,7.53
2019-05-13T19:29:15.056Z,9.48
2019-05-13T19:31:22.410Z,6.40
2019-05-13T19:33:31.586Z,8.98
2019-05-13T19:35:38.637Z,7.55
2019-05-13T19:37:45.680Z,7.20
2019-05-13T19:39:52.849Z,10.03
2019-05-13T19:42:00.967Z,6.92
2019-05-13T19:44:08.078Z,6.75
2019-05-13T19:46:15.290Z,11.60
2019-05-13T19:48:22.558Z,6.62
2019-05-13T19:50:31.545Z,8.60
2019-05-13T19:52:38.779Z,8.53
2019-05-13T19:54:45.916Z,8.95
2019-05-13T19:56:53.167Z,9.83
2019-05-13T19:59:02.940Z,7.72
2019-05-13T20:01:11.677Z,8.40
2019-05-13T20:03:18.970Z,11.20
2019-05-13T20:05:27.828Z,9.08
2019-05-13T20:07:34.380Z,10.72
2019-05-13T20:09:42.851Z,11.60
2019-05-13T20:11:54.983Z,12.55
2019-05-13T20:14:01.335Z,10.58
2019-05-13T20:16:11.693Z,10.18
2019-05-13T20:18:19.375Z,7.33
2019-05-13T20:20:26.668Z,7.53
2019-05-13T20:22:33.789Z,7.28
2019-05-13T20:24:41.975Z,8.65
2019-05-13T20:26:52.287Z,8.85
2019-05-13T20:29:01.548Z,8.03
2019-05-13T20:31:11.067Z,6.30
2019-05-13T20:33:18.311Z,5.95
2019-05-13T20:35:25.496Z,6.78
2019-05-13T20:37:32.581Z,5.58
2019-05-13T20:39:42.281Z,6.58
2019-05-13T20:41:48.464Z,4.67
2019-05-13T20:43:55.602Z,5.37
2019-05-13T20:46:02.852Z,8.23
2019-05-13T20:48:12.102Z,5.97
2019-05-13T20:50:21.496Z,4.80
2019-05-13T20:52:28.177Z,6.55
2019-05-13T20:54:35.269Z,7.92
2019-05-13T20:56:42.478Z,7.28
2019-05-13T20:58:51.604Z,6.92
2019-05-13T21:00:58.472Z,5.87
2019-05-13T21:03:05.610Z,7.95
2019-05-13T21:05:13.307Z,6.80
2019-05-13T21:07:21.734Z,9.78
2019-05-13T21:09:29.005Z,8.83
2019-05-13T21:11:36.692Z,9.08
2019-05-13T21:13:43.740Z,8.48
2019-05-13T21:15:51.885Z,8.40
2019-05-13T21:17:59.104Z,9.58
2019-05-13T21:20:18.637Z,9.13
2019-05-13T21:22:16.712Z,11.25
2019-05-13T21:24:23.761Z,8.18
2019-05-13T21:26:31.453Z,7.78
2019-05-13T21:28:38.761Z,9.13
2019-05-13T21:30:45.875Z,11.00
2019-05-13T21:32:52.927Z,11.35
2019-05-13T21:35:01.733Z,11.05
2019-05-13T21:37:11.383Z,9.20
2019-05-13T21:39:17.800Z,10.98
2019-05-13T21:41:24.957Z,10.53
2019-05-13T21:43:32.505Z,9.53
2019-05-13T21:45:41.563Z,14.73
2019-05-13T21:47:48.448Z,10.20
2019-05-13T21:49:55.501Z,11.15
2019-05-13T21:52:02.720Z,13.83
2019-05-13T21:54:11.747Z,10.28
2019-05-13T21:56:22.940Z,10.40
2019-05-13T21:58:27.446Z,13.13
2019-05-13T22:00:36.244Z,10.00
2019-05-13T22:02:48.187Z,13.83
2019-05-13T22:04:55.239Z,13.15
2019-05-13T22:07:02.388Z,12.18
2019-05-13T22:09:11.875Z,14.10
2019-05-13T22:11:19.111Z,11.33
2019-05-13T22:13:26.273Z,14.93
2019-05-13T22:15:33.482Z,19.73
2019-05-13T22:17:42.204Z,18.75
2019-05-13T22:19:51.261Z,18.98
2019-05-13T22:21:58.454Z,18.55
2019-05-13T22:24:05.577Z,16.93
2019-05-13T22:26:12.710Z,19.87
2019-05-13T22:28:21.959Z,17.95
2019-05-13T22:30:28.653Z,18.87
2019-05-13T22:32:35.744Z,17.67
2019-05-13T22:34:42.791Z,16.20
2019-05-13T22:36:51.679Z,18.70
2019-05-13T22:38:58.699Z,18.00
2019-05-13T22:41:05.815Z,17.20
2019-05-13T22:43:12.874Z,20.00
2019-05-13T22:45:21.957Z,15.80
2019-05-13T22:47:31.503Z,20.68
2019-05-13T22:49:38.770Z,15.28
2019-05-13T22:51:45.854Z,19.07
2019-05-13T22:53:53.484Z,15.45
2019-05-13T22:56:03.554Z,13.78
2019-05-13T22:58:10.635Z,12.68
2019-05-13T23:00:18.090Z,13.90
2019-05-13T23:02:26.743Z,14.47
2019-05-13T23:04:33.830Z,14.55
2019-05-13T23:06:40.979Z,13.65
2019-05-13T23:08:48.032Z,13.95
2019-05-13T23:10:56.211Z,14.68
2019-05-13T23:13:03.333Z,15.88
2019-05-13T23:15:11.942Z,13.68
2019-05-13T23:17:21.399Z,15.75
2019-05-13T23:19:32.065Z,18.20
2019-05-13T23:21:38.551Z,16.15
2019-05-13T23:23:45.699Z,12.53
2019-05-13T23:25:52.850Z,15.40
2019-05-13T23:28:00.014Z,15.15
2019-05-13T23:30:08.917Z,13.88
2019-05-13T23:32:15.967Z,14.60
2019-05-13T23:34:23.025Z,15.63
2019-05-13T23:36:31.636Z,18.15
2019-05-13T23:38:41.775Z,16.85
2019-05-13T23:40:48.831Z,16.60
2019-05-13T23:42:55.976Z,16.97
2019-05-13T23:45:03.400Z,18.12
2019-05-13T23:47:11.503Z,17.10
2019-05-13T23:49:20.933Z,20.65
2019-05-13T23:51:27.535Z,18.80
2019-05-13T23:53:34.580Z,15.23
2019-05-13T23:55:41.658Z,12.60
2019-05-13T23:57:48.716Z,17.40
2019-05-13T23:59:55.775Z,18.45
